Flight Track Log - Related Links

Times and Time Zones

All times are in EST time to prevent confusion due to time zone crossing. See the EJA922 flight status page for this flight to view local times or setup timezone preferences in your user account.

Time Position Orientation Groundspeed Altitude Reporting Facility
EST Latitude Longitude Course Direction KTS MPH feet Rate Location/Type
Thu 04:04:29 PM 33.9167 -118.4667 228° Southwest 233 268 2,900  Level Southern TRACON
Thu 04:05:35 PM 33.8667 -118.5333 228° Southwest 265 305 6,100 3,350 Climbing Southern TRACON
Thu 04:06:29 PM 33.8000 -118.5500 192° South 311 358 9,600 3,349 Climbing Southern TRACON
Thu 04:07:01 PM 33.7519 -118.5361 166° South 329 379 10,900 2,842 Climbing Los Center
Thu 04:08:04 PM 33.6781 -118.4617 140° Southeast 370 426 14,100 2,928 Climbing Los Center
Thu 04:09:06 PM 33.6453 -118.3467 109° East 371 427 17,000 2,710 Climbing Los Center
Thu 04:10:08 PM 33.6433 -118.2228 91° East 379 436 19,700 1,935 Climbing Los Center
Thu 04:11:10 PM 33.6431 -118.0631 90° East 404 465 21,000 1,500 Climbing Los Center
Thu 04:12:12 PM 33.6436 -117.9208 90° East 426 490 22,800 1,790 Climbing Los Center
Thu 04:13:14 PM 33.6428 -117.7753 90° East 437 503 24,700 1,728 Climbing Los Center
Thu 04:14:17 PM 33.6425 -117.6300 90° East 438 504 26,400 1,680 Climbing Los Center
Thu 04:15:19 PM 33.6419 -117.4819 90° East 443 510 28,200 1,694 Climbing Los Center
Thu 04:16:21 PM 33.6406 -117.2992 90° East 456 525 29,900 1,548 Climbing Los Center
Thu 04:17:23 PM 33.6403 -117.1431 90° East 468 539 31,400 2,032 Climbing Los Center
Thu 04:18:25 PM 33.6381 -116.9889 91° East 466 536 34,100 2,081 Climbing Los Center
Thu 04:19:27 PM 33.6369 -116.8242 90° East 457 526 35,700 1,584 Climbing Los Center
Thu 04:20:30 PM 33.6344 -116.6717 91° East 457 526 37,400 1,104 Climbing Los Center
Thu 04:21:32 PM 33.6322 -116.5158 91° East 464 534 38,000 919 Climbing Los Center
Thu 04:22:34 PM 33.6308 -116.3558 91° East 474 545 39,300 1,065 Climbing Los Center
Thu 04:23:36 PM 33.6283 -116.1994 91° East 471 542 40,200 726 Climbing Los Center
Thu 04:24:38 PM 33.6739 -116.0167 73° East 474 545 40,800 387 Climbing Los Center
Thu 04:25:40 PM 33.7225 -115.8664 69° East 480 552 41,000 48 Climbing Los Center
Thu 04:26:42 PM 33.7753 -115.7089 68° East 498 573 40,900  Descending Los Center
Thu 04:27:44 PM 33.8264 -115.5453 69° East 516 594 41,000 48 Climbing Los Center
Thu 04:28:47 PM 33.8786 -115.3769 69° East 531 611 41,000  Level Los Center
Thu 04:29:49 PM 33.9333 -115.2111 68° East 533 613 41,000  Level Los Center
Thu 04:30:51 PM 33.9861 -115.0436 69° East 537 618 41,000  Level Los Center
Thu 04:31:53 PM 34.0514 -114.8414 69° East 541 623 41,000  Level Los Center
Thu 04:32:55 PM 34.1033 -114.6736 69° East 537 618 41,000  Level Los Center
Thu 04:33:57 PM 34.1522 -114.5058 71° East 532 612 41,000 -48 Level Los Center
Thu 04:34:59 PM 34.2003 -114.3389 71° East 528 608 40,900  Descending Los Center
Thu 04:35:36 PM 34.2300 -114.2289 72° East 535 616 41,000 61 Climbing Albuquerque Center
Thu 04:36:38 PM 34.2781 -114.0592 71° East 537 618 41,000  Level Albuquerque Center
Thu 04:37:40 PM 34.3339 -113.8536 72° East 537 618 41,000  Level Albuquerque Center
Thu 04:38:42 PM 34.3819 -113.6803 71° East 541 623 41,000  Level Albuquerque Center
Thu 04:39:44 PM 34.4225 -113.5258 72° East 545 627 41,000  Level Albuquerque Center
Thu 04:40:46 PM 34.4794 -113.3200 71° East 543 625 41,000  Level Albuquerque Center
Thu 04:41:48 PM 34.5261 -113.1436 72° East 550 633 41,000  Level Albuquerque Center
Thu 04:42:50 PM 34.5725 -112.9683 72° East 551 634 41,000  Level Albuquerque Center
Thu 04:43:52 PM 34.6194 -112.7936 72° East 550 633 41,000  Level Albuquerque Center
Thu 04:44:54 PM 34.6658 -112.6200 72° East 549 632 41,000  Level Albuquerque Center
Thu 04:45:56 PM 34.7181 -112.4108 73° East 548 631 41,000  Level Albuquerque Center
Thu 04:46:58 PM 34.7578 -112.2356 75° East 546 628 41,000  Level Albuquerque Center
Thu 04:48:00 PM 34.7972 -112.0597 75° East 545 627 41,000  Level Albuquerque Center
Thu 04:49:02 PM 34.8378 -111.8828 74° East 546 628 41,000  Level Albuquerque Center
Thu 04:50:04 PM 34.8836 -111.6786 75° East 546 628 41,000  Level Albuquerque Center
Thu 04:51:06 PM 34.9225 -111.5011 75° East 543 625 41,000  Level Albuquerque Center
Thu 04:52:08 PM 34.9625 -111.3219 75° East 545 627 41,000  Level Albuquerque Center
Thu 04:53:10 PM 35.0017 -111.1461 75° East 540 621 41,000  Level Albuquerque Center
Thu 04:54:12 PM 35.0389 -110.9700 75° East 538 619 41,000  Level Albuquerque Center
Thu 04:55:14 PM 35.0797 -110.7772 75° East 538 619 41,000  Level Albuquerque Center
Thu 04:56:16 PM 35.1228 -110.5822 75° East 536 617 41,000  Level Albuquerque Center
Thu 04:57:18 PM 35.1592 -110.4131 75° East 537 618 41,000  Level Albuquerque Center
Thu 04:58:20 PM 35.2008 -110.2169 75° East 536 617 41,000  Level Albuquerque Center
Thu 04:59:22 PM 35.2372 -110.0475 75° East 538 619 41,000  Level Albuquerque Center
Thu 05:00:24 PM 35.2786 -109.8483 76° East 540 621 41,000  Level Albuquerque Center
Thu 05:01:26 PM 35.3131 -109.6781 76° East 541 623 41,000  Level Albuquerque Center
Thu 05:02:27 PM 35.3478 -109.5061 76° East 543 625 41,000  Level Albuquerque Center
Thu 05:03:29 PM 35.3883 -109.3050 76° East 545 627 41,000  Level Albuquerque Center
Thu 05:04:31 PM 35.4239 -109.1322 76° East 547 629 41,000  Level Albuquerque Center
Thu 05:05:33 PM 35.4644 -108.9317 76° East 546 628 41,000  Level Albuquerque Center
Thu 05:06:35 PM 35.5053 -108.7617 74° East 546 628 41,000  Level Albuquerque Center
Thu 05:07:37 PM 35.5600 -108.5656 71° East 547 629 41,000  Level Albuquerque Center
Thu 05:08:39 PM 35.6072 -108.3942 71° East 553 636 41,000  Level Albuquerque Center
Thu 05:09:41 PM 35.6606 -108.1956 72° East 552 635 41,000  Level Albuquerque Center
Thu 05:10:43 PM 35.7058 -108.0231 72° East 554 638 41,000  Level Albuquerque Center
Thu 05:11:45 PM 35.7575 -107.8217 72° East 554 638 41,000  Level Albuquerque Center
Thu 05:12:47 PM 35.8031 -107.6500 72° East 553 636 41,000  Level Albuquerque Center
Thu 05:13:49 PM 35.8567 -107.4461 72° East 558 642 41,000  Level Albuquerque Center
Thu 05:14:51 PM 35.9014 -107.2725 72° East 558 642 41,000  Level Albuquerque Center
Thu 05:15:53 PM 35.9544 -107.0694 72° East 557 641 41,000  Level Albuquerque Center
Thu 05:16:55 PM 35.9975 -106.8975 73° East 552 635 41,000  Level Albuquerque Center
Thu 05:17:57 PM 36.0494 -106.6936 72° East 556 640 41,000  Level Albuquerque Center
Thu 05:18:59 PM 36.0964 -106.5067 73° East 556 640 41,000  Level Albuquerque Center
Thu 05:20:01 PM 36.1425 -106.3192 73° East 562 647 41,000  Level Albuquerque Center
Thu 05:21:03 PM 36.1883 -106.1353 73° East 557 641 41,000  Level Albuquerque Center
Thu 05:22:05 PM 36.2331 -105.9486 73° East 561 646 41,000 -48 Level Albuquerque Center
Thu 05:23:07 PM 36.2781 -105.7628 73° East 560 644 40,900 -48 Descending Albuquerque Center
Thu 05:24:09 PM 36.3231 -105.5775 73° East 559 643 40,900 48 Level Albuquerque Center
Thu 05:25:11 PM 36.3744 -105.3644 73° East 559 643 41,000 48 Climbing Albuquerque Center
Thu 05:26:13 PM 36.4197 -105.1750 73° East 564 649 41,000  Level Albuquerque Center
Thu 05:27:15 PM 36.4639 -104.9878 74° East 561 646 41,000  Level Albuquerque Center
Thu 05:28:17 PM 36.5153 -104.8028 71° East 561 646 41,000  Level Albuquerque Center
Thu 05:29:19 PM 36.5825 -104.6206 65° Northeast 569 655 41,000  Level Albuquerque Center
Thu 05:30:21 PM 36.6489 -104.4414 65° Northeast 566 651 41,000  Level Albuquerque Center
Thu 05:31:23 PM 36.7167 -104.2547 66° East 565 650 41,000  Level Albuquerque Center
Thu 05:32:25 PM 36.7894 -104.0550 65° Northeast 567 652 41,000  Level Albuquerque Center
Thu 05:33:27 PM 36.8508 -103.8844 66° East 566 651 41,000  Level Albuquerque Center
Thu 05:34:29 PM 36.9222 -103.6831 66° East 569 655 41,000  Level Albuquerque Center
Thu 05:35:31 PM 36.9842 -103.5078 66° East 575 662 41,000  Level Albuquerque Center
Thu 05:36:34 PM 37.0556 -103.3044 66° East 576 663 41,000  Level Albuquerque Center
Thu 05:37:36 PM 37.1164 -103.1286 67° East 576 663 41,000  Level Albuquerque Center
Thu 05:38:38 PM 37.1878 -102.9231 66° East 579 666 41,000  Level Albuquerque Center
Thu 05:39:40 PM 37.2506 -102.7478 66° East 577 664 41,000  Level Albuquerque Center
Thu 05:40:42 PM 37.3192 -102.5436 67° East 572 658 41,000  Level Albuquerque Center
Thu 05:41:44 PM 37.3789 -102.3656 67° East 576 663 41,000  Level Albuquerque Center
Thu 05:42:22 PM 37.4125 -102.2589 68° East 574 661 41,000  Level Kansas Center
Thu 05:43:26 PM 37.4836 -102.0500 67° East 579 666 41,000  Level Kansas Center
Thu 05:44:28 PM 37.5431 -101.8708 67° East 580 667 41,000  Level Kansas Center
Thu 05:45:28 PM 37.6128 -101.6619 67° East 579 666 41,000  Level Kansas Center
Thu 05:46:33 PM 37.6719 -101.4819 67° East 578 665 41,000 192 Level Kansas Center
Thu 05:47:33 PM 37.7406 -101.2728 67° East 576 663 41,400 439 Climbing Kansas Center
Thu 05:48:36 PM 37.7989 -101.0958 67° East 570 656 41,900 435 Climbing Kansas Center
Thu 05:49:37 PM 37.8561 -100.9178 68° East 562 647 42,300 484 Climbing Kansas Center
Thu 05:50:40 PM 37.9228 -100.7119 68° East 559 643 42,900 336 Climbing Kansas Center
Thu 05:51:42 PM 37.9822 -100.5372 67° East 560 644 43,000 49 Climbing Kansas Center
Thu 05:52:42 PM 38.0514 -100.3325 67° East 563 648 43,000  Level Kansas Center
Thu 05:53:45 PM 38.1103 -100.1567 67° East 566 651 43,000  Level Kansas Center
Thu 05:54:47 PM 38.1786 -99.9494 67° East 568 654 43,000  Level Kansas Center
Thu 05:55:51 PM 38.2375 -99.7731 67° East 567 652 43,000  Level Kansas Center
Thu 05:56:52 PM 38.3058 -99.5664 67° East 567 652 43,000  Level Kansas Center
Thu 05:57:52 PM 38.3639 -99.3883 67° East 567 652 43,000  Level Kansas Center
Thu 05:58:57 PM 38.4311 -99.1803 68° East 569 655 43,000  Level Kansas Center
Thu 05:59:57 PM 38.4900 -99.0000 67° East 573 659 43,000  Level Kansas Center
Thu 06:01:01 PM 38.5544 -98.8003 68° East 570 656 43,000  Level Kansas Center
Thu 06:02:01 PM 38.6172 -98.6039 68° East 573 659 43,000  Level Kansas Center
Thu 06:03:05 PM 38.6803 -98.4061 68° East 577 664 43,000  Level Kansas Center
Thu 06:04:06 PM 38.7431 -98.2061 68° East 578 665 43,000  Level Kansas Center
Thu 06:05:09 PM 38.8061 -98.0050 68° East 582 670 43,000  Level Kansas Center
Thu 06:06:10 PM 38.8533 -97.8192 72° East 580 667 43,000  Level Kansas Center
Thu 06:07:12 PM 38.8981 -97.6283 73° East 582 670 43,000  Level Kansas Center
Thu 06:08:15 PM 38.9511 -97.4000 73° East 581 669 43,000  Level Kansas Center
Thu 06:09:15 PM 38.9950 -97.2147 73° East 581 669 43,000  Level Kansas Center
Thu 06:10:19 PM 39.0478 -96.9922 73° East 582 670 43,000  Level Kansas Center
Thu 06:11:20 PM 39.0911 -96.8000 74° East 584 672 43,000  Level Kansas Center
Thu 06:12:21 PM 39.1433 -96.5758 73° East 584 672 43,000  Level Kansas Center
Thu 06:13:25 PM 39.1900 -96.3836 73° East 586 674 43,000  Level Kansas Center
Thu 06:14:26 PM 39.2486 -96.1619 71° East 586 674 43,000  Level Kansas Center
Thu 06:15:28 PM 39.3078 -95.9778 67° East 579 666 43,000  Level Kansas Center
Thu 06:16:30 PM 39.3761 -95.7611 68° East 580 667 43,000  Level Kansas Center
Thu 06:17:33 PM 39.4342 -95.5769 68° East 575 662 43,000  Level Kansas Center
Thu 06:18:33 PM 39.4972 -95.3756 68° East 573 659 43,000  Level Kansas Center
Thu 06:19:37 PM 39.5578 -95.1778 68° East 566 651 43,000  Level Kansas Center
Thu 06:20:38 PM 39.6144 -94.9950 68° East 566 651 43,000  Level Kansas Center
Thu 06:21:41 PM 39.6794 -94.7803 68° East 569 655 43,000  Level Kansas Center
Thu 06:22:42 PM 39.7356 -94.5981 68° East 568 654 43,000  Level Kansas Center
Thu 06:23:45 PM 39.7911 -94.4153 68° East 568 654 43,000  Level Kansas Center
Thu 06:24:47 PM 39.8539 -94.1997 69° East 570 656 43,000  Level Kansas Center
Thu 06:25:48 PM 39.9039 -94.0247 70° East 577 664 43,000  Level Kansas Center
Thu 06:26:50 PM 39.9708 -93.7958 69° East 568 654 43,000  Level Kansas Center
Thu 06:27:54 PM 40.0247 -93.6044 70° East 566 651 43,000  Level Kansas Center
Thu 06:28:54 PM 40.0814 -93.4125 69° East 570 656 43,000  Level Kansas Center
Thu 06:29:58 PM 40.1383 -93.2192 69° East 572 658 43,000  Level Kansas Center
Thu 06:30:58 PM 40.2028 -92.9919 70° East 575 662 43,000  Level Kansas Center
Thu 06:32:02 PM 40.2575 -92.8039 69° East 576 663 43,000  Level Kansas Center
Thu 06:33:03 PM 40.3208 -92.5858 69° East 574 661 43,000  Level Kansas Center
Thu 06:34:05 PM 40.3761 -92.3758 71° East 581 669 43,000  Level Kansas Center
Thu 06:35:14 PM 40.4331 -92.1808 69° East 576 663 43,000  Level Chicago Center
Thu 06:36:16 PM 40.4975 -91.9444 70° East 576 663 43,000  Level Chicago Center
Thu 06:37:11 PM 40.5386 -91.7853 71° East 578 665 43,000  Level Kansas Center
Thu 06:38:12 PM 40.5928 -91.5875 70° East 578 665 43,000  Level Kansas Center
Thu 06:39:16 PM 40.6447 -91.3897 71° East 576 663 43,000  Level Kansas Center
Thu 06:40:17 PM 40.6992 -91.1864 70° East 575 662 43,000  Level Kansas Center
Thu 06:41:27 PM 40.7628 -90.9481 71° East 576 663 43,000  Level Chicago Center
Thu 06:42:29 PM 40.8250 -90.7072 71° East 576 663 43,000  Level Chicago Center
Thu 06:43:31 PM 40.8761 -90.5069 71° East 573 659 43,000  Level Chicago Center
Thu 06:44:33 PM 40.9283 -90.3058 71° East 574 661 43,000  Level Chicago Center
Thu 06:45:35 PM 40.9767 -90.1189 71° East 575 662 43,000  Level Chicago Center
Thu 06:46:37 PM 41.0322 -89.8981 71° East 577 664 43,000  Level Chicago Center
Thu 06:47:39 PM 41.0839 -89.6928 71° East 579 666 43,000  Level Chicago Center
Thu 06:48:41 PM 41.1347 -89.4889 72° East 578 665 43,000  Level Chicago Center
Thu 06:49:43 PM 41.1842 -89.2864 72° East 576 663 43,000  Level Chicago Center
Thu 06:50:45 PM 41.2364 -89.0700 72° East 577 664 43,000  Level Chicago Center
Thu 06:51:47 PM 41.2853 -88.8667 72° East 579 666 43,000  Level Chicago Center
Thu 06:52:49 PM 41.3428 -88.6222 73° East 581 669 43,000  Level Chicago Center
Thu 06:53:51 PM 41.3914 -88.4189 72° East 577 664 43,000  Level Chicago Center
Thu 06:54:53 PM 41.4400 -88.2122 73° East 581 669 43,000  Level Chicago Center
Thu 06:55:55 PM 41.4861 -88.0161 73° East 585 673 43,000  Level Chicago Center
Thu 06:56:56 PM 41.5381 -87.7875 73° East 571 657 43,000  Level Chicago Center
Thu 06:57:58 PM 41.5842 -87.5814 73° East 577 664 43,000  Level Chicago Center
Thu 06:59:00 PM 41.6311 -87.3756 73° East 580 667 43,000  Level Chicago Center
Thu 07:00:02 PM 41.6775 -87.1711 73° East 575 662 43,000  Level Chicago Center
Thu 07:01:04 PM 41.7231 -86.9650 73° East 577 664 43,000  Level Chicago Center
Thu 07:02:06 PM 41.7769 -86.7192 74° East 575 662 43,000  Level Chicago Center
Thu 07:03:08 PM 41.8175 -86.5292 74° East 576 663 43,000  Level Chicago Center
Thu 07:04:10 PM 41.8622 -86.3225 74° East 576 663 43,000  Level Chicago Center
Thu 07:05:12 PM 41.9064 -86.1144 74° East 578 665 43,000  Level Chicago Center
Thu 07:06:14 PM 41.9503 -85.9075 74° East 576 663 43,000  Level Chicago Center
Thu 07:07:16 PM 42.0028 -85.6564 74° East 578 665 43,000  Level Chicago Center
Thu 07:08:18 PM 42.0411 -85.4697 74° East 577 664 43,000  Level Chicago Center
Thu 07:09:20 PM 42.0836 -85.2625 74° East 578 665 43,000  Level Chicago Center
Thu 07:10:22 PM 42.1344 -85.0108 75° East 583 671 43,000 -98 Level Chicago Center
Thu 07:11:23 PM 42.1761 -84.8008 75° East 584 672 42,800 -585 Descending Chicago Center
Thu 07:12:25 PM 42.2178 -84.5925 75° East 580 667 41,800 -968 Descending Chicago Center
Thu 07:13:27 PM 42.2589 -84.3839 75° East 578 665 40,800 -1,065 Descending Chicago Center
Thu 07:14:29 PM 42.2986 -84.1764 75° East 575 662 39,600 -1,306 Descending Chicago Center
Thu 07:15:31 PM 42.3381 -83.9714 75° East 568 654 38,100 -1,615 Descending Chicago Center
Thu 07:16:39 PM 42.3875 -83.7075 76° East 565 650 36,100 -1,662 Descending Cleveland Center
Thu 07:17:41 PM 42.4300 -83.5036 74° East 554 638 34,500 -1,016 Descending Cleveland Center
Thu 07:18:43 PM 42.4853 -83.3042 69° East 554 638 34,000 -581 Descending Cleveland Center
Thu 07:19:45 PM 42.5378 -83.1067 70° East 554 638 33,300 -1,073 Descending Cleveland Center
Thu 07:20:46 PM 42.5917 -82.9058 70° East 564 649 31,800 -1,366 Descending Cleveland Center
Thu 07:21:48 PM 42.6450 -82.7019 70° East 572 658 30,500 -1,306 Descending Cleveland Center
Thu 07:22:50 PM 42.6978 -82.4994 70° East 570 656 29,100 -1,210 Descending Cleveland Center
Thu 07:23:52 PM 42.7611 -82.2581 70° East 564 649 28,000 -968 Descending Cleveland Center
Thu 07:24:54 PM 42.8272 -82.0694 64° Northeast 556 640 27,100 -927 Descending Cleveland Center
Thu 07:25:42 PM 42.8833 -81.9000 66° East 550 633 26,300 -889 Descending Toronto Center
Thu 07:26:42 PM 42.9500 -81.7333 61° Northeast 540 621 25,500 -800 Descending Toronto Center
Thu 07:27:42 PM 43.0167 -81.5667 61° Northeast 520 598 24,700 -900 Descending Toronto Center
Thu 07:28:42 PM 43.0667 -81.3667 71° East 510 587 23,700 -1,350 Descending Toronto Center
Thu 07:29:42 PM 43.1333 -81.2167 59° Northeast 500 575 22,000 -1,800 Descending Toronto Center
Thu 07:30:42 PM 43.1833 -81.0500 68° East 500 575 20,100 -1,850 Descending Toronto Center
Thu 07:31:42 PM 43.2500 -80.9000 59° Northeast 480 552 18,300 -1,700 Descending Toronto Center
Thu 07:32:42 PM 43.3167 -80.7333 61° Northeast 460 529 16,700 -1,950 Descending Toronto Center
Thu 07:33:42 PM 43.3833 -80.5667 61° Northeast 460 529 14,400 -2,200 Descending Toronto Center
Thu 07:34:42 PM 43.4333 -80.4167 65° Northeast 440 506 12,300 -1,650 Descending Toronto Center
Thu 07:35:42 PM 43.4667 -80.3000 68° East 400 460 11,100 -650 Descending Toronto Center
Thu 07:36:42 PM 43.5000 -80.1833 68° East 330 380 11,000 -50 Descending Toronto Center
Thu 07:37:42 PM 43.5333 -80.0500 71° East 330 380 11,000  Level Toronto Center
Thu 07:38:42 PM 43.5667 -79.9500 65° Northeast 310 357 11,000 -350 Level Toronto Center
Thu 07:39:42 PM 43.5833 -79.8333 79° East 290 334 10,300 -850 Descending Toronto Center
Thu 07:40:42 PM 43.5833 -79.7333 90° East 280 322 9,300 -650 Descending Toronto Center
Thu 07:41:42 PM 43.5833 -79.6333 90° East 270 311 9,000 -700 Descending Toronto Center
Thu 07:42:42 PM 43.5833 -79.5333 90° East 260 299 7,900 -1,350 Descending Toronto Center
Thu 07:43:42 PM 43.6333 -79.4500 50° Northeast 260 299 6,300 -1,650 Descending Toronto Center
Thu 07:44:42 PM 43.6833 -79.3833 44° Northeast 250 288 4,600 -1,600 Descending Toronto Center
Thu 07:45:42 PM 43.7333 -79.3333 36° Northeast 250 288 3,100 -800 Descending Toronto Center
Thu 07:46:42 PM 43.7667 -79.3833 313° West 200 230 3,000 -50 Descending Toronto Center
Thu 07:47:42 PM 43.7667 -79.4333 270° West 170 196 3,000 -150 Level Toronto Center
Thu 07:48:42 PM 43.7333 -79.4667 216° Southwest 150 173 2,700 -500 Descending Toronto Center
Thu 07:49:42 PM 43.7167 -79.5167 245° Southwest 130 150 2,000 -700 Descending Toronto Center
Thu 07:50:42 PM 43.7000 -79.5333 216° Southwest 120 138 1,300 -700 Descending Toronto Center
Thu 07:51:42 PM 43.6667 -79.5833 227° Southwest 120 138 600 -700 Descending Toronto Center

Login

Don't have an account? Register now (free) for customized features, flight alerts, and more!